Time;durP1;ratioP1;P1;durP2;ratioP2;P2;SDS_P1;SDS_P2;PMS_P1;PMS_P2;Temp;Humidity;BMP_temperature;BMP_pressure;BME280_temperature;BME280_humidity;BME280_pressure;Samples;Min_cycle;Max_cycle;Signal;HPM_P1;HPM_P2
2021/03/27 00:00:21;;;;;;;7.32;3.33;;;7.20;80.70;;;;;;4867576;29;20165;-82
2021/03/27 00:02:53;;;;;;;7.57;3.08;;;7.00;81.00;;;;;;4869245;29;20049;-83
2021/03/27 00:05:25;;;;;;;5.45;3.45;;;7.00;81.20;;;;;;4873067;29;20419;-83
2021/03/27 00:08:14;;;;;;;6.63;4.38;;;6.90;81.10;;;;;;4886363;29;20061;-82
2021/03/27 00:10:49;;;;;;;7.13;3.70;;;6.90;81.70;;;;;;4873807;29;20059;-82
2021/03/27 00:13:25;;;;;;;9.35;3.78;;;6.90;82.00;;;;;;4880799;29;20105;-84
2021/03/27 00:15:58;;;;;;;10.02;4.22;;;6.80;82.00;;;;;;4878123;29;20281;-83
2021/03/27 00:18:38;;;;;;;7.13;3.83;;;6.80;82.00;;;;;;4874036;29;20116;-84
2021/03/27 00:21:12;;;;;;;8.52;5.00;;;6.70;82.60;;;;;;4869306;29;20101;-81
2021/03/27 00:23:48;;;;;;;8.55;4.63;;;6.60;82.30;;;;;;4872135;29;20056;-83
2021/03/27 00:26:23;;;;;;;7.05;3.97;;;6.60;82.80;;;;;;4884369;29;20165;-82
2021/03/27 00:28:55;;;;;;;9.65;3.78;;;6.50;83.30;;;;;;4873276;29;20073;-83
2021/03/27 00:31:26;;;;;;;11.60;3.90;;;6.40;83.60;;;;;;4867339;29;20123;-84
2021/03/27 00:33:58;;;;;;;;;;;6.20;84.10;;;;;;4873688;29;20057;-82
2021/03/27 00:36:29;;;;;;;8.85;3.75;;;6.20;84.10;;;;;;4857631;29;19928;-82
2021/03/27 00:39:04;;;;;;;6.53;3.35;;;6.10;84.40;;;;;;4861404;29;20057;-82
2021/03/27 00:41:36;;;;;;;9.07;4.22;;;6.10;84.40;;;;;;4873525;29;20058;-83
2021/03/27 00:44:11;;;;;;;6.32;2.92;;;6.00;84.40;;;;;;4889506;29;20061;-84
2021/03/27 00:46:42;;;;;;;7.15;2.83;;;6.00;84.50;;;;;;4877779;29;20045;-84
2021/03/27 00:49:11;;;;;;;;;;;6.00;84.40;;;;;;4880140;29;20048;-83
2021/03/27 00:51:42;;;;;;;4.53;2.30;;;5.90;84.70;;;;;;4880350;29;19935;-81
2021/03/27 00:54:22;;;;;;;6.57;3.25;;;5.90;84.30;;;;;;4893670;29;20052;-82
2021/03/27 00:57:00;;;;;;;8.32;3.13;;;6.00;84.00;;;;;;4882570;29;20067;-84
2021/03/27 00:59:36;;;;;;;7.82;2.72;;;6.10;83.70;;;;;;4862402;29;20503;-83
2021/03/27 01:02:23;;;;;;;5.97;2.97;;;6.10;83.60;;;;;;4878706;29;20049;-82
2021/03/27 01:05:13;;;;;;;8.20;3.53;;;6.10;83.70;;;;;;4890251;29;20385;-82
2021/03/27 01:07:42;;;;;;;6.43;3.15;;;6.10;83.50;;;;;;4879435;29;20053;-82
2021/03/27 01:10:20;;;;;;;7.38;3.45;;;6.30;83.20;;;;;;4895519;29;20053;-82
2021/03/27 01:13:11;;;;;;;7.72;3.83;;;6.40;82.80;;;;;;4878236;29;20040;-83
2021/03/27 01:15:47;;;;;;;9.55;4.32;;;6.40;82.40;;;;;;4883350;29;20344;-83
2021/03/27 01:18:18;;;;;;;10.55;4.32;;;6.50;82.20;;;;;;4892331;29;20061;-81
2021/03/27 01:20:49;;;;;;;8.82;3.92;;;6.50;82.10;;;;;;4880708;29;20055;-83
2021/03/27 01:23:17;;;;;;;5.95;3.53;;;6.40;82.70;;;;;;4876083;29;20044;-83
2021/03/27 01:25:44;;;;;;;8.82;4.32;;;6.30;83.10;;;;;;4887057;29;20064;-83
2021/03/27 01:28:21;;;;;;;7.97;3.60;;;6.30;83.70;;;;;;4878116;29;20045;-81
2021/03/27 01:30:56;;;;;;;8.82;3.72;;;6.40;83.40;;;;;;4889567;29;20090;-84
2021/03/27 01:33:28;;;;;;;7.63;4.00;;;6.50;82.80;;;;;;4891877;29;20658;-84
2021/03/27 01:36:06;;;;;;;11.20;3.97;;;6.50;83.00;;;;;;4879270;29;20045;-82
2021/03/27 01:38:41;;;;;;;8.77;3.70;;;6.70;82.60;;;;;;4881748;29;20056;-84
2021/03/27 01:41:23;;;;;;;9.88;4.40;;;6.70;82.30;;;;;;4894412;29;20124;-83
2021/03/27 01:43:59;;;;;;;5.82;3.05;;;6.70;82.30;;;;;;4879916;29;20056;-84
2021/03/27 01:46:51;;;;;;;7.95;3.47;;;6.80;82.30;;;;;;4877262;29;20536;-82
2021/03/27 01:49:34;;;;;;;6.78;3.80;;;6.90;81.70;;;;;;4880997;29;20392;-82
2021/03/27 01:52:14;;;;;;;8.95;3.78;;;7.00;81.20;;;;;;4878685;29;20057;-84
2021/03/27 01:54:53;;;;;;;7.07;3.27;;;7.00;81.00;;;;;;4877866;29;20061;-85
2021/03/27 01:57:27;;;;;;;10.25;3.53;;;7.00;81.20;;;;;;4893690;29;20787;-83
2021/03/27 01:59:58;;;;;;;5.47;3.33;;;7.00;81.10;;;;;;4876484;29;20339;-83
2021/03/27 02:02:31;;;;;;;7.65;3.72;;;7.00;81.50;;;;;;4871705;29;20562;-84
2021/03/27 02:05:06;;;;;;;7.93;4.30;;;6.90;81.60;;;;;;4861580;29;20089;-84
2021/03/27 02:07:44;;;;;;;6.95;3.47;;;7.00;81.40;;;;;;4878827;29;20401;-85
2021/03/27 02:10:22;;;;;;;8.65;3.58;;;7.00;81.20;;;;;;4864380;29;20188;-85
2021/03/27 02:13:04;;;;;;;7.13;3.75;;;7.00;81.50;;;;;;4876831;29;20044;-85
2021/03/27 02:15:40;;;;;;;6.53;3.72;;;6.90;81.40;;;;;;4876305;29;20343;-83
2021/03/27 02:18:15;;;;;;;6.03;3.33;;;6.80;81.90;;;;;;4875414;29;20064;-83
2021/03/27 02:21:05;;;;;;;7.65;3.92;;;6.80;82.00;;;;;;4877836;29;20057;-85
2021/03/27 02:23:51;;;;;;;6.45;3.30;;;6.80;82.00;;;;;;4871898;29;20311;-83
2021/03/27 02:26:51;;;;;;;7.40;3.40;;;6.80;82.10;;;;;;4871425;29;20064;-82
2021/03/27 02:29:52;;;;;;;7.85;3.40;;;6.90;81.80;;;;;;4871077;29;20053;-82
2021/03/27 02:32:29;;;;;;;6.35;3.28;;;6.90;81.90;;;;;;4889145;29;20061;-82
2021/03/27 02:35:09;;;;;;;7.05;3.78;;;7.00;81.70;;;;;;4875527;29;20056;-82
2021/03/27 02:37:39;;;;;;;11.00;3.83;;;7.00;81.80;;;;;;4876473;29;20048;-83
2021/03/27 02:40:11;;;;;;;8.88;3.58;;;7.10;81.60;;;;;;4877149;29;20439;-83
2021/03/27 02:42:50;;;;;;;9.43;3.22;;;7.20;81.30;;;;;;4877590;29;20286;-83
2021/03/27 02:45:23;;;;;;;10.55;3.80;;;7.20;81.30;;;;;;4879347;29;20049;-84
2021/03/27 02:48:03;;;;;;;8.75;3.60;;;7.20;81.40;;;;;;4890428;29;20045;-80
2021/03/27 02:50:54;;;;;;;6.57;3.70;;;7.30;81.70;;;;;;4874532;29;20721;-82
2021/03/27 02:53:26;;;;;;;9.30;3.83;;;7.40;81.60;;;;;;4891515;29;20326;-82
2021/03/27 02:56:09;;;;;;;8.07;3.95;;;7.50;81.30;;;;;;4875510;29;20068;-81
2021/03/27 02:58:44;;;;;;;6.65;3.67;;;7.50;81.70;;;;;;4876601;29;20083;-83
2021/03/27 03:01:18;;;;;;;7.03;2.83;;;7.70;81.90;;;;;;4873351;29;20063;-81
2021/03/27 03:03:50;;;;;;;9.07;3.38;;;7.90;81.70;;;;;;4882389;29;20119;-83
2021/03/27 03:06:31;;;;;;;5.88;3.03;;;8.20;80.00;;;;;;4877888;29;20045;-80
2021/03/27 03:09:10;;;;;;;8.25;3.47;;;8.50;79.10;;;;;;4894171;29;20052;-82
2021/03/27 03:11:48;;;;;;;6.35;3.13;;;8.70;77.70;;;;;;4879981;29;20061;-81
2021/03/27 03:14:22;;;;;;;8.57;3.13;;;8.90;77.40;;;;;;4880253;29;20121;-84
2021/03/27 03:17:01;;;;;;;7.40;2.97;;;9.00;77.00;;;;;;4893775;29;20577;-84
2021/03/27 03:19:38;;;;;;;6.72;2.63;;;9.20;76.90;;;;;;4877887;29;20363;-84
2021/03/27 03:22:14;;;;;;;5.78;2.58;;;9.60;76.00;;;;;;4885332;29;20253;-82
2021/03/27 03:24:46;;;;;;;6.43;2.55;;;10.10;74.10;;;;;;4880837;29;20060;-84
2021/03/27 03:27:18;;;;;;;6.10;2.55;;;10.50;72.80;;;;;;4878665;29;20062;-85
2021/03/27 03:29:55;;;;;;;4.72;2.58;;;10.70;71.40;;;;;;4879393;29;20072;-83
2021/03/27 03:32:41;;;;;;;6.28;2.45;;;10.70;71.00;;;;;;4879423;29;20052;-82
2021/03/27 03:35:22;;;;;;;6.90;3.00;;;10.90;70.40;;;;;;4863869;29;20053;-82
2021/03/27 03:37:59;;;;;;;5.68;2.40;;;11.10;69.70;;;;;;4895240;29;20056;-83
2021/03/27 03:40:33;;;;;;;4.07;1.90;;;11.20;68.60;;;;;;4890684;29;20988;-82
2021/03/27 03:43:13;;;;;;;8.10;2.92;;;11.30;68.40;;;;;;4877300;29;20049;-83
2021/03/27 03:45:52;;;;;;;5.63;2.35;;;11.40;67.40;;;;;;4881520;29;20057;-82
2021/03/27 03:48:44;;;;;;;5.18;2.28;;;11.50;67.20;;;;;;4877907;29;20121;-83
2021/03/27 03:51:22;;;;;;;5.63;2.30;;;11.40;67.70;;;;;;4878068;29;20108;-82
2021/03/27 03:54:03;;;;;;;4.93;2.63;;;11.40;67.70;;;;;;4878185;29;20221;-81
2021/03/27 03:56:38;;;;;;;5.80;3.08;;;11.30;68.50;;;;;;4885562;29;20354;-84
2021/03/27 03:59:31;;;;;;;4.68;2.20;;;11.20;69.40;;;;;;4878287;29;20428;-82
2021/03/27 04:02:06;;;;;;;5.63;1.88;;;11.10;71.40;;;;;;4873140;29;20355;-82
2021/03/27 04:04:42;;;;;;;5.50;2.67;;;10.60;75.60;;;;;;4880576;29;20061;-82
2021/03/27 04:07:13;;;;;;;6.65;2.30;;;10.20;79.00;;;;;;4862433;29;20045;-80
2021/03/27 04:09:49;;;;;;;6.05;2.05;;;10.00;79.80;;;;;;4878313;29;20293;-82
2021/03/27 04:12:24;;;;;;;3.85;1.77;;;9.90;79.30;;;;;;4877945;29;20295;-81
2021/03/27 04:15:22;;;;;;;4.15;1.90;;;9.80;80.30;;;;;;4869947;29;20077;-82
2021/03/27 04:17:59;;;;;;;3.72;1.00;;;9.70;80.30;;;;;;4889828;29;20691;-84
2021/03/27 04:20:35;;;;;;;2.83;1.10;;;9.40;79.40;;;;;;4865318;29;20049;-82
2021/03/27 04:23:12;;;;;;;1.17;0.55;;;9.20;78.40;;;;;;4882725;29;20371;-82
2021/03/27 04:25:46;;;;;;;1.80;0.77;;;8.90;79.50;;;;;;4895996;29;20060;-82
2021/03/27 04:28:18;;;;;;;1.30;0.50;;;8.80;80.70;;;;;;4883084;29;20351;-83
2021/03/27 04:30:57;;;;;;;0.52;0.30;;;8.70;80.20;;;;;;4886148;29;20072;-83
2021/03/27 04:33:45;;;;;;;0.75;0.30;;;8.40;79.30;;;;;;4896348;29;20792;-82
2021/03/27 04:36:18;;;;;;;2.90;0.50;;;8.40;78.20;;;;;;4887772;29;20090;-82
2021/03/27 04:38:50;;;;;;;1.33;0.28;;;8.20;78.20;;;;;;4882791;29;20046;-84
2021/03/27 04:41:37;;;;;;;0.55;0.20;;;8.20;77.60;;;;;;4896966;29;20051;-84
2021/03/27 04:44:15;;;;;;;0.80;0.38;;;8.20;79.20;;;;;;4883510;29;20048;-82
2021/03/27 04:46:48;;;;;;;0.90;0.32;;;8.10;78.80;;;;;;4866337;29;20100;-82
2021/03/27 04:49:24;;;;;;;0.38;0.20;;;8.00;78.50;;;;;;4873225;29;20060;-82
2021/03/27 04:52:03;;;;;;;0.63;0.30;;;8.00;79.40;;;;;;4883566;29;20120;-84
2021/03/27 04:54:48;;;;;;;0.80;0.30;;;7.90;78.60;;;;;;4897563;29;20385;-81
2021/03/27 04:57:23;;;;;;;0.73;0.35;;;7.90;78.70;;;;;;4863312;29;20064;-82
2021/03/27 05:00:22;;;;;;;0.50;0.20;;;7.90;78.40;;;;;;4881653;29;20059;-83
2021/03/27 05:03:02;;;;;;;0.47;0.40;;;7.90;78.70;;;;;;4878790;29;20729;-82
2021/03/27 05:05:42;;;;;;;0.75;0.30;;;7.90;77.70;;;;;;4894074;29;20228;-82
2021/03/27 05:08:16;;;;;;;0.35;0.28;;;7.90;77.70;;;;;;4882345;29;20057;-83
2021/03/27 05:10:48;;;;;;;1.58;0.30;;;7.80;77.50;;;;;;4885816;29;20061;-81
2021/03/27 05:13:25;;;;;;;1.40;0.60;;;7.70;74.00;;;;;;4897293;29;20057;-81
2021/03/27 05:15:58;;;;;;;0.30;0.10;;;7.80;75.10;;;;;;4894796;29;21554;-82
2021/03/27 05:18:42;;;;;;;0.77;0.10;;;7.70;74.30;;;;;;4873494;29;20068;-81
2021/03/27 05:21:21;;;;;;;0.20;0.15;;;7.70;74.50;;;;;;4878165;29;20293;-79
2021/03/27 05:24:08;;;;;;;0.10;0.10;;;7.70;74.00;;;;;;4878439;29;20061;-81
2021/03/27 05:26:47;;;;;;;0.10;0.10;;;7.80;73.90;;;;;;4877640;29;20370;-81
2021/03/27 05:29:39;;;;;;;1.65;0.20;;;7.70;73.00;;;;;;4878232;29;20655;-80
2021/03/27 05:32:19;;;;;;;0.40;0.20;;;7.70;72.80;;;;;;4871565;29;20045;-83
2021/03/27 05:34:51;;;;;;;0.10;0.10;;;7.80;72.70;;;;;;4880784;29;20049;-84
2021/03/27 05:37:35;;;;;;;0.00;0.00;;;7.70;71.10;;;;;;4894371;29;20048;-82
2021/03/27 05:40:45;;;;;;;1.13;0.20;;;7.80;71.00;;;;;;4881625;29;20044;-80
2021/03/27 05:43:27;;;;;;;0.20;0.20;;;7.80;70.90;;;;;;4878993;29;20068;-83
2021/03/27 05:46:51;;;;;;;0.50;0.30;;;7.70;70.30;;;;;;4879235;29;20056;-81
2021/03/27 05:50:04;;;;;;;1.67;0.15;;;7.60;68.00;;;;;;4830306;29;20884;-82
2021/03/27 05:53:05;;;;;;;0.13;0.10;;;7.50;67.70;;;;;;4826106;29;20095;-81
2021/03/27 05:55:58;;;;;;;0.73;0.32;;;7.50;68.70;;;;;;4840796;29;20125;-80
2021/03/27 05:58:42;;;;;;;0.38;0.15;;;7.40;68.70;;;;;;4868702;29;20051;-80
2021/03/27 06:01:32;;;;;;;0.00;0.00;;;7.30;68.40;;;;;;4891013;29;20053;-81
2021/03/27 06:04:31;;;;;;;0.73;0.30;;;7.40;67.00;;;;;;4877706;29;20053;-80
2021/03/27 06:07:43;;;;;;;0.30;0.30;;;7.50;66.80;;;;;;4879585;29;20072;-82
2021/03/27 06:10:37;;;;;;;0.60;0.50;;;7.50;66.60;;;;;;4894753;29;20071;-81
2021/03/27 06:13:22;;;;;;;1.30;0.20;;;7.50;66.50;;;;;;4894519;29;20276;-80
2021/03/27 06:16:52;;;;;;;3.03;0.65;;;7.60;66.70;;;;;;4880211;29;20338;-81
2021/03/27 06:20:07;;;;;;;1.90;0.20;;;7.60;68.60;;;;;;4824637;29;20238;-81
2021/03/27 06:23:09;;;;;;;0.28;0.10;;;7.60;68.80;;;;;;4811784;29;20062;-82
2021/03/27 06:26:25;;;;;;;0.30;0.10;;;7.60;68.90;;;;;;4879537;29;20469;-80
2021/03/27 06:29:24;;;;;;;1.25;0.20;;;7.50;69.60;;;;;;4823342;29;20102;-80
2021/03/27 06:32:32;;;;;;;0.65;0.20;;;7.60;68.20;;;;;;4876159;29;20482;-83
2021/03/27 06:35:11;;;;;;;0.90;0.40;;;7.50;67.50;;;;;;4890480;29;20118;-80
2021/03/27 06:38:04;;;;;;;1.05;0.13;;;7.60;67.80;;;;;;4882277;29;20072;-81
2021/03/27 06:41:05;;;;;;;0.13;0.10;;;7.50;67.00;;;;;;4894804;29;20053;-83
2021/03/27 06:44:13;;;;;;;2.28;0.52;;;7.40;65.70;;;;;;4884337;29;20899;-83
2021/03/27 06:47:15;;;;;;;1.15;0.10;;;7.40;65.40;;;;;;4865244;29;20187;-81
2021/03/27 06:50:06;;;;;;;2.78;0.25;;;7.40;64.60;;;;;;4886117;29;20066;-82
2021/03/27 06:53:01;;;;;;;;;;;7.50;65.00;;;;;;4869715;29;20085;-82
2021/03/27 06:55:46;;;;;;;1.38;0.22;;;7.50;65.10;;;;;;4881624;29;20422;-82
2021/03/27 06:59:16;;;;;;;0.30;0.13;;;7.40;64.70;;;;;;4881369;29;20108;-82
2021/03/27 07:02:53;;;;;;;0.30;0.10;;;7.20;64.90;;;;;;4824894;29;20410;-82
2021/03/27 07:06:00;;;;;;;1.42;0.10;;;7.10;64.80;;;;;;4826755;29;20622;-83
2021/03/27 07:08:48;;;;;;;3.47;0.75;;;7.10;62.90;;;;;;4882081;29;20033;-83
2021/03/27 07:11:38;;;;;;;0.25;0.15;;;7.10;62.70;;;;;;4896130;29;20065;-81
2021/03/27 07:14:43;;;;;;;0.60;0.20;;;7.10;62.70;;;;;;4883909;29;20056;-83
2021/03/27 07:17:45;;;;;;;2.38;0.45;;;7.10;62.40;;;;;;4896933;29;20041;-83
2021/03/27 07:20:31;;;;;;;1.42;0.20;;;7.10;62.80;;;;;;4868534;29;20060;-84
2021/03/27 07:23:35;;;;;;;0.17;0.00;;;7.00;62.30;;;;;;4898043;29;20053;-84
2021/03/27 07:26:42;;;;;;;0.10;0.10;;;6.90;62.70;;;;;;4885521;29;20278;-83
2021/03/27 07:29:40;;;;;;;0.25;0.25;;;7.10;62.60;;;;;;4880194;29;20156;-82
2021/03/27 07:32:34;;;;;;;1.23;0.35;;;7.10;62.50;;;;;;4899257;29;20052;-81
2021/03/27 07:35:24;;;;;;;0.45;0.10;;;7.10;62.70;;;;;;4870899;29;20055;-80
2021/03/27 07:38:26;;;;;;;1.65;0.43;;;7.20;62.90;;;;;;4891712;29;20264;-83
2021/03/27 07:41:08;;;;;;;0.17;0.10;;;7.20;62.30;;;;;;4858961;29;20088;-82
2021/03/27 07:44:11;;;;;;;0.57;0.20;;;7.30;63.90;;;;;;4883420;29;20048;-83
2021/03/27 07:47:15;;;;;;;0.75;0.10;;;7.40;64.40;;;;;;4854131;29;20816;-84
2021/03/27 07:50:22;;;;;;;1.27;0.28;;;7.50;63.30;;;;;;4865573;29;20056;-82
2021/03/27 07:53:16;;;;;;;0.85;0.38;;;7.60;63.10;;;;;;4889023;29;20064;-83
2021/03/27 07:56:20;;;;;;;1.30;0.20;;;7.70;60.70;;;;;;4882377;29;20262;-83
2021/03/27 07:59:10;;;;;;;1.42;0.30;;;7.90;60.20;;;;;;4867370;29;20097;-83
2021/03/27 08:02:21;;;;;;;3.03;0.30;;;8.10;58.90;;;;;;4845546;29;20076;-83
2021/03/27 08:05:14;;;;;;;2.30;0.10;;;8.20;57.80;;;;;;4881392;29;20363;-83
2021/03/27 08:08:02;;;;;;;3.38;0.68;;;8.20;57.40;;;;;;4881087;29;20121;-83
2021/03/27 08:11:07;;;;;;;0.82;0.30;;;8.20;57.80;;;;;;4878784;29;20056;-84
2021/03/27 08:14:07;;;;;;;5.22;0.70;;;8.20;56.60;;;;;;4871173;29;20081;-82
2021/03/27 08:17:05;;;;;;;1.30;0.63;;;8.60;56.80;;;;;;4842707;29;20336;-83
2021/03/27 08:19:56;;;;;;;1.95;0.43;;;8.50;56.80;;;;;;4876389;29;20621;-82
2021/03/27 08:22:58;;;;;;;1.00;0.50;;;8.50;57.00;;;;;;4875928;29;20048;-83
2021/03/27 08:25:37;;;;;;;2.15;0.32;;;8.40;56.40;;;;;;4866176;29;20283;-82
2021/03/27 08:28:49;;;;;;;0.88;0.30;;;8.40;56.00;;;;;;4880768;29;20056;-81
2021/03/27 08:31:37;;;;;;;1.27;0.30;;;8.40;56.10;;;;;;4883152;29;20049;-82
2021/03/27 08:34:36;;;;;;;2.85;0.30;;;8.30;55.80;;;;;;4884849;29;20049;-82
2021/03/27 08:37:31;;;;;;;4.10;0.63;;;8.20;56.00;;;;;;4870889;29;20060;-84
2021/03/27 08:40:45;;;;;;;0.82;0.32;;;8.20;56.30;;;;;;4883483;29;20080;-83
2021/03/27 08:43:47;;;;;;;2.65;0.85;;;8.40;55.40;;;;;;4865036;29;20053;-83
2021/03/27 08:46:44;;;;;;;5.07;0.55;;;8.70;55.20;;;;;;4868738;29;20228;-83
2021/03/27 08:49:42;;;;;;;0.75;0.32;;;8.90;53.80;;;;;;4877450;29;20044;-83
2021/03/27 08:52:30;;;;;;;0.32;0.10;;;8.80;53.40;;;;;;4891406;29;20063;-84
2021/03/27 08:55:12;;;;;;;0.73;0.52;;;8.70;53.50;;;;;;4884145;29;20057;-84
2021/03/27 08:58:16;;;;;;;0.38;0.20;;;8.90;52.90;;;;;;4895107;29;20095;-80
2021/03/27 09:01:09;;;;;;;0.65;0.20;;;9.00;52.10;;;;;;4871788;29;20601;-81
2021/03/27 09:04:08;;;;;;;3.13;0.60;;;9.10;51.70;;;;;;4875034;29;20080;-82
2021/03/27 09:06:48;;;;;;;2.80;1.15;;;9.10;52.00;;;;;;4873425;29;21036;-79
2021/03/27 09:09:27;;;;;;;0.73;0.30;;;8.90;52.50;;;;;;4891243;29;20074;-80
2021/03/27 09:12:28;;;;;;;3.70;1.05;;;8.80;51.90;;;;;;4881416;29;20092;-81
2021/03/27 09:15:39;;;;;;;1.10;0.57;;;8.80;52.10;;;;;;4867097;29;20933;-80
2021/03/27 09:18:46;;;;;;;4.32;0.90;;;8.70;51.90;;;;;;4814591;29;20086;-83
2021/03/27 09:21:38;;;;;;;6.88;1.10;;;8.90;52.10;;;;;;4892499;29;20053;-82
2021/03/27 09:24:21;;;;;;;1.92;0.52;;;9.10;51.80;;;;;;4881157;29;20053;-81
2021/03/27 09:26:57;;;;;;;6.97;1.60;;;9.20;51.60;;;;;;4878353;29;20068;-81
2021/03/27 09:30:02;;;;;;;3.67;1.00;;;9.40;50.60;;;;;;4878991;29;20444;-81
2021/03/27 09:32:47;;;;;;;3.38;1.08;;;9.40;50.50;;;;;;4879517;29;20252;-81
2021/03/27 09:35:52;;;;;;;7.43;1.30;;;9.70;50.40;;;;;;4897860;29;20069;-83
2021/03/27 09:38:39;;;;;;;1.55;0.47;;;9.70;50.50;;;;;;4882763;29;20068;-82
2021/03/27 09:41:57;;;;;;;3.63;0.63;;;9.60;50.60;;;;;;4882895;29;20049;-83
2021/03/27 09:44:38;;;;;;;2.33;0.63;;;9.60;51.40;;;;;;4866609;29;20088;-83
2021/03/27 09:47:26;;;;;;;0.75;0.40;;;9.60;51.40;;;;;;4892850;29;20060;-83
2021/03/27 09:50:00;;;;;;;3.80;0.60;;;9.60;51.70;;;;;;4894196;29;20327;-82
2021/03/27 09:52:50;;;;;;;3.20;0.55;;;9.50;51.60;;;;;;4869921;29;20660;-83
2021/03/27 09:55:41;;;;;;;3.55;0.47;;;9.70;51.20;;;;;;4893924;29;20064;-82
2021/03/27 09:58:33;;;;;;;2.25;0.77;;;9.70;51.00;;;;;;4882853;29;20048;-81
2021/03/27 10:01:12;;;;;;;2.00;0.70;;;9.80;50.70;;;;;;4873124;29;20072;-83
2021/03/27 10:03:48;;;;;;;3.50;0.50;;;10.00;50.40;;;;;;4883267;29;20053;-81
2021/03/27 10:06:45;;;;;;;2.22;0.70;;;9.90;50.20;;;;;;4869113;29;20368;-82
2021/03/27 10:09:45;;;;;;;3.28;0.80;;;9.70;51.20;;;;;;4899679;29;20232;-82
2021/03/27 10:12:16;;;;;;;5.18;0.50;;;9.90;51.30;;;;;;4852196;29;20236;-81
2021/03/27 10:14:58;;;;;;;5.43;0.43;;;10.00;50.90;;;;;;4882402;29;20108;-83
2021/03/27 10:17:31;;;;;;;;;;;10.50;49.60;;;;;;4895040;29;20060;-82
2021/03/27 10:20:14;;;;;;;9.73;0.95;;;11.60;47.50;;;;;;4895646;29;19935;-81
2021/03/27 10:22:46;;;;;;;7.80;1.10;;;11.50;47.00;;;;;;4886208;29;20280;-81
2021/03/27 10:25:33;;;;;;;4.60;1.20;;;11.00;48.30;;;;;;4878190;29;20052;-83
2021/03/27 10:28:15;;;;;;;1.13;0.68;;;11.80;47.40;;;;;;4896881;29;20057;-82
2021/03/27 10:30:57;;;;;;;1.88;0.70;;;12.60;45.10;;;;;;4879907;29;20084;-82
2021/03/27 10:33:39;;;;;;;2.60;1.10;;;14.00;40.80;;;;;;4873873;29;20049;-80
2021/03/27 10:36:37;;;;;;;3.85;0.73;;;13.40;41.60;;;;;;4867314;29;20053;-84
2021/03/27 10:39:41;;;;;;;4.18;0.60;;;12.30;43.90;;;;;;4875889;29;20125;-81
2021/03/27 10:42:42;;;;;;;1.70;0.30;;;13.90;40.70;;;;;;4861686;29;20050;-82
2021/03/27 10:45:39;;;;;;;1.60;0.30;;;15.00;37.20;;;;;;4864809;29;20057;-82
2021/03/27 10:48:25;;;;;;;0.50;0.20;;;12.50;41.70;;;;;;4878883;29;20232;-83
2021/03/27 10:51:15;;;;;;;0.57;0.32;;;11.60;49.70;;;;;;4852341;29;20069;-82
2021/03/27 10:53:55;;;;;;;0.90;0.20;;;10.60;52.40;;;;;;4864096;29;20049;-82
2021/03/27 10:56:34;;;;;;;0.15;0.10;;;10.20;54.70;;;;;;4880360;29;20046;-83
2021/03/27 10:59:19;;;;;;;1.02;0.32;;;9.70;56.40;;;;;;4878507;29;20057;-83
2021/03/27 11:02:42;;;;;;;2.45;0.17;;;9.00;62.20;;;;;;4871836;29;20060;-84
2021/03/27 11:05:39;;;;;;;0.30;0.30;;;8.00;66.40;;;;;;4795422;29;20042;-84
2021/03/27 11:08:41;;;;;;;3.92;0.50;;;7.40;68.90;;;;;;4809362;29;20070;-83
2021/03/27 11:11:30;;;;;;;2.53;0.30;;;7.20;70.60;;;;;;4865978;29;20053;-84
2021/03/27 11:14:24;;;;;;;0.15;0.10;;;6.70;72.70;;;;;;4862804;29;20053;-83
2021/03/27 11:17:06;;;;;;;3.15;0.50;;;7.00;74.50;;;;;;4882067;29;20049;-83
2021/03/27 11:20:02;;;;;;;2.28;0.20;;;8.40;70.00;;;;;;4879992;29;20114;-82
2021/03/27 11:22:54;;;;;;;1.02;0.30;;;8.40;69.80;;;;;;4869498;29;20333;-81
2021/03/27 11:25:42;;;;;;;;;;;8.50;67.40;;;;;;4868283;29;20330;-84
2021/03/27 11:28:20;;;;;;;1.75;0.68;;;8.50;69.70;;;;;;4863786;29;19991;-83
2021/03/27 11:31:10;;;;;;;3.60;0.65;;;8.40;71.60;;;;;;4885674;29;20075;-84
2021/03/27 11:33:50;;;;;;;0.35;0.17;;;8.60;69.70;;;;;;4881092;29;20626;-81
2021/03/27 11:36:25;;;;;;;0.40;0.20;;;7.90;70.50;;;;;;4881911;29;20053;-82
2021/03/27 11:38:59;;;;;;;1.92;0.20;;;7.30;72.80;;;;;;4883489;29;20057;-83
2021/03/27 11:41:36;;;;;;;4.53;0.30;;;6.90;73.90;;;;;;4865833;29;20455;-83
2021/03/27 11:44:40;;;;;;;0.82;0.22;;;6.40;75.50;;;;;;4867354;29;20101;-83
2021/03/27 11:47:34;;;;;;;0.90;0.17;;;6.40;76.40;;;;;;4886320;29;20336;-82
2021/03/27 11:50:19;;;;;;;0.22;0.20;;;6.40;76.60;;;;;;4897725;29;20049;-84
2021/03/27 11:52:58;;;;;;;0.98;0.20;;;6.40;77.20;;;;;;4887870;29;20053;-83
2021/03/27 11:55:29;;;;;;;3.88;0.60;;;6.60;77.40;;;;;;4883402;29;20755;-84
2021/03/27 11:58:07;;;;;;;0.73;0.30;;;7.00;76.60;;;;;;4889234;29;20056;-83
2021/03/27 12:03:51;;;;;;;1.75;0.45;;;7.20;76.70;;;;;;4875266;29;20116;-85
2021/03/27 12:06:35;;;;;;;2.53;0.55;;;7.30;77.00;;;;;;4868301;29;20097;-82
2021/03/27 12:09:21;;;;;;;1.83;0.77;;;7.50;78.10;;;;;;4879068;29;20116;-82
2021/03/27 12:12:17;;;;;;;2.38;0.30;;;7.80;75.70;;;;;;4901299;29;20119;-83
2021/03/27 12:14:56;;;;;;;1.10;0.30;;;8.20;76.20;;;;;;4885504;29;20589;-82
2021/03/27 12:17:35;;;;;;;0.47;0.20;;;8.60;76.00;;;;;;4888502;29;20045;-84
2021/03/27 12:20:26;;;;;;;2.10;0.57;;;8.60;74.60;;;;;;4888440;29;20084;-82
2021/03/27 12:23:01;;;;;;;2.92;0.30;;;8.60;75.80;;;;;;4887367;29;20061;-82
2021/03/27 12:25:47;;;;;;;1.27;0.40;;;8.60;74.40;;;;;;4886365;29;20435;-83
2021/03/27 12:28:38;;;;;;;0.88;0.30;;;8.60;73.90;;;;;;4899032;29;20064;-83
2021/03/27 12:31:33;;;;;;;0.82;0.30;;;9.10;74.20;;;;;;4901900;29;20053;-82
2021/03/27 12:34:10;;;;;;;0.47;0.22;;;9.10;72.70;;;;;;4888038;29;20249;-86
2021/03/27 12:36:52;;;;;;;2.95;0.57;;;9.20;72.20;;;;;;4888413;29;20053;-86
2021/03/27 12:39:30;;;;;;;1.02;0.40;;;9.20;71.50;;;;;;4891853;29;20061;-85
2021/03/27 12:42:12;;;;;;;2.20;1.00;;;9.10;72.00;;;;;;4891810;29;20344;-82
2021/03/27 12:44:53;;;;;;;1.63;0.47;;;9.00;72.20;;;;;;4887358;29;20053;-84
2021/03/27 12:47:47;;;;;;;0.98;0.60;;;8.70;73.60;;;;;;4898079;29;20352;-82
2021/03/27 12:50:31;;;;;;;1.77;0.47;;;8.40;74.70;;;;;;4852912;29;20060;-84
2021/03/27 12:53:38;;;;;;;1.35;0.30;;;8.60;75.20;;;;;;4872454;29;20048;-84
2021/03/27 12:56:34;;;;;;;3.25;0.32;;;8.90;73.40;;;;;;4888227;29;20057;-84
2021/03/27 12:59:11;;;;;;;2.78;0.90;;;9.00;74.50;;;;;;4865005;29;20224;-83
2021/03/27 13:02:23;;;;;;;4.38;0.77;;;9.30;75.40;;;;;;4884482;29;20052;-82
2021/03/27 13:05:14;;;;;;;1.77;0.70;;;9.70;72.90;;;;;;4874686;29;20125;-84
2021/03/27 13:07:57;;;;;;;1.50;0.70;;;9.50;75.30;;;;;;4884656;29;20100;-84
2021/03/27 13:10:46;;;;;;;2.75;0.88;;;9.40;72.80;;;;;;4885197;29;20049;-83
2021/03/27 13:14:00;;;;;;;3.20;0.52;;;9.20;73.60;;;;;;4898464;29;20052;-83
2021/03/27 13:16:44;;;;;;;1.00;0.40;;;10.40;64.50;;;;;;4895452;29;20148;-83
2021/03/27 13:19:22;;;;;;;3.58;0.98;;;13.90;50.30;;;;;;4870072;29;20067;-84
2021/03/27 13:22:15;;;;;;;1.23;0.55;;;14.20;43.00;;;;;;4887688;29;20082;-82
2021/03/27 13:25:14;;;;;;;1.88;0.50;;;13.20;45.00;;;;;;4884335;29;20426;-82
2021/03/27 13:27:50;;;;;;;2.90;0.50;;;14.90;42.30;;;;;;4868467;29;20044;-83
2021/03/27 13:30:23;;;;;;;1.70;0.30;;;14.10;39.20;;;;;;4880797;29;20102;-81
2021/03/27 13:33:19;;;;;;;0.40;0.10;;;12.10;42.10;;;;;;4887679;29;20068;-82
2021/03/27 13:36:19;;;;;;;3.58;0.70;;;11.10;44.20;;;;;;4878628;29;20057;-83
2021/03/27 13:38:57;;;;;;;2.60;0.60;;;10.50;44.80;;;;;;4884887;29;20627;-82
2021/03/27 13:42:03;;;;;;;2.65;0.47;;;10.40;48.10;;;;;;4900808;29;20742;-83
2021/03/27 13:44:50;;;;;;;1.80;0.80;;;10.50;48.00;;;;;;4880852;29;20274;-83
2021/03/27 13:47:41;;;;;;;3.28;0.63;;;10.90;48.00;;;;;;4881271;29;20084;-84
2021/03/27 13:50:26;;;;;;;1.60;0.55;;;10.70;47.90;;;;;;4879375;29;20273;-83
2021/03/27 13:53:09;;;;;;;1.92;0.68;;;10.60;46.70;;;;;;4887819;29;20053;-83
2021/03/27 13:55:44;;;;;;;2.20;0.30;;;10.30;48.10;;;;;;4896706;29;20459;-82
2021/03/27 13:58:25;;;;;;;1.48;0.43;;;10.00;48.30;;;;;;4888691;29;20060;-82
2021/03/27 14:00:59;;;;;;;3.78;0.47;;;10.10;47.50;;;;;;4880365;29;20128;-84
2021/03/27 14:03:47;;;;;;;4.00;0.60;;;10.10;48.60;;;;;;4883443;29;20304;-81
2021/03/27 14:06:28;;;;;;;2.78;0.50;;;9.90;48.70;;;;;;4885258;29;20105;-83
2021/03/27 14:09:33;;;;;;;4.05;0.45;;;9.80;50.70;;;;;;4889680;29;20186;-83
2021/03/27 14:12:05;;;;;;;4.03;0.40;;;9.70;53.30;;;;;;4882407;29;20162;-83
2021/03/27 14:14:36;;;;;;;1.30;0.50;;;8.90;60.20;;;;;;4881819;29;20060;-84
2021/03/27 14:17:12;;;;;;;0.73;0.22;;;8.30;63.10;;;;;;4872394;29;20073;-82
2021/03/27 14:20:21;;;;;;;1.15;0.38;;;8.10;64.00;;;;;;4883339;29;20052;-85
2021/03/27 14:23:32;;;;;;;0.55;0.25;;;8.20;64.70;;;;;;4858238;29;20073;-81
2021/03/27 14:26:16;;;;;;;0.55;0.35;;;8.10;63.30;;;;;;4896961;29;20256;-81
2021/03/27 14:28:51;;;;;;;2.28;0.30;;;8.50;64.30;;;;;;4881378;29;20061;-81
2021/03/27 14:31:45;;;;;;;3.92;0.38;;;8.80;64.90;;;;;;4882325;29;20076;-82
2021/03/27 14:34:41;;;;;;;0.93;0.30;;;10.90;58.40;;;;;;4888058;29;20057;-84
2021/03/27 14:37:24;;;;;;;1.05;0.20;;;11.00;57.80;;;;;;4882178;29;20033;-83